sensor_id;sensor_type;location;lat;lon;timestamp;pressure;altitude;pressure_sealevel;temperature;humidity
49585;BME280;35491;49.142;9.210;2023-11-21T00:00:31;99264.06;;;10.40;71.92
49585;BME280;35491;49.142;9.210;2023-11-21T00:01:31;99268.53;;;10.39;71.57
49585;BME280;35491;49.142;9.210;2023-11-21T00:02:35;99267.34;;;10.34;71.56
49585;BME280;35491;49.142;9.210;2023-11-21T00:03:37;99263.22;;;10.39;71.37
49585;BME280;35491;49.142;9.210;2023-11-21T00:04:40;99272.06;;;10.40;71.40
49585;BME280;35491;49.142;9.210;2023-11-21T00:05:41;99269.69;;;10.37;71.42
49585;BME280;35491;49.142;9.210;2023-11-21T00:06:45;99266.06;;;10.38;71.46
49585;BME280;35491;49.142;9.210;2023-11-21T00:07:47;99265.69;;;10.33;71.44
49585;BME280;35491;49.142;9.210;2023-11-21T00:08:51;99265.34;;;10.36;71.61
49585;BME280;35491;49.142;9.210;2023-11-21T00:09:52;99270.22;;;10.40;71.54
49585;BME280;35491;49.142;9.210;2023-11-21T00:10:56;99264.16;;;10.30;71.66
49585;BME280;35491;49.142;9.210;2023-11-21T00:11:56;99266.06;;;10.38;71.29
49585;BME280;35491;49.142;9.210;2023-11-21T00:13:00;99260.34;;;10.33;71.61
49585;BME280;35491;49.142;9.210;2023-11-21T00:14:05;99263.63;;;10.26;71.79
49585;BME280;35491;49.142;9.210;2023-11-21T00:15:11;99265.19;;;10.29;71.52
49585;BME280;35491;49.142;9.210;2023-11-21T00:16:12;99262.31;;;10.22;72.01
49585;BME280;35491;49.142;9.210;2023-11-21T00:17:16;99256.28;;;10.20;71.91
49585;BME280;35491;49.142;9.210;2023-11-21T00:18:16;99268.47;;;10.23;71.83
49585;BME280;35491;49.142;9.210;2023-11-21T00:19:29;99270.44;;;10.12;72.12
49585;BME280;35491;49.142;9.210;2023-11-21T00:20:29;99266.78;;;10.22;72.40
49585;BME280;35491;49.142;9.210;2023-11-21T00:21:32;99268.16;;;10.26;72.56
49585;BME280;35491;49.142;9.210;2023-11-21T00:22:33;99258.13;;;10.20;72.62
49585;BME280;35491;49.142;9.210;2023-11-21T00:23:34;99260.97;;;10.26;72.71
49585;BME280;35491;49.142;9.210;2023-11-21T00:24:38;99266.78;;;10.22;73.09
49585;BME280;35491;49.142;9.210;2023-11-21T00:25:39;99262.81;;;10.26;73.02
49585;BME280;35491;49.142;9.210;2023-11-21T00:26:43;99253.47;;;10.30;72.89
49585;BME280;35491;49.142;9.210;2023-11-21T00:27:44;99255.13;;;10.31;72.96
49585;BME280;35491;49.142;9.210;2023-11-21T00:28:47;99256.47;;;10.27;72.92
49585;BME280;35491;49.142;9.210;2023-11-21T00:29:51;99256.31;;;10.28;73.16
49585;BME280;35491;49.142;9.210;2023-11-21T00:30:54;99254.81;;;10.34;73.16
49585;BME280;35491;49.142;9.210;2023-11-21T00:31:54;99263.22;;;10.39;73.05
49585;BME280;35491;49.142;9.210;2023-11-21T00:32:58;99257.03;;;10.39;73.26
49585;BME280;35491;49.142;9.210;2023-11-21T00:33:59;99256.63;;;10.25;73.50
49585;BME280;35491;49.142;9.210;2023-11-21T00:35:02;99248.78;;;10.24;73.76
49585;BME280;35491;49.142;9.210;2023-11-21T00:36:03;99252.13;;;10.26;73.61
49585;BME280;35491;49.142;9.210;2023-11-21T00:37:09;99248.47;;;10.27;73.67
49585;BME280;35491;49.142;9.210;2023-11-21T00:38:10;99253.31;;;10.32;73.23
49585;BME280;35491;49.142;9.210;2023-11-21T00:39:13;99249.47;;;10.34;72.93
49585;BME280;35491;49.142;9.210;2023-11-21T00:40:14;99249.66;;;10.33;73.06
49585;BME280;35491;49.142;9.210;2023-11-21T00:41:19;99253.16;;;10.33;72.81
49585;BME280;35491;49.142;9.210;2023-11-21T00:42:20;99252.63;;;10.29;73.18
49585;BME280;35491;49.142;9.210;2023-11-21T00:43:24;99253.47;;;10.30;73.14
49585;BME280;35491;49.142;9.210;2023-11-21T00:44:24;99257.16;;;10.29;72.91
49585;BME280;35491;49.142;9.210;2023-11-21T00:45:30;99247.44;;;10.20;73.35
49585;BME280;35491;49.142;9.210;2023-11-21T00:46:32;99253.09;;;10.17;72.96
49585;BME280;35491;49.142;9.210;2023-11-21T00:47:35;99251.94;;;10.19;73.32
49585;BME280;35491;49.142;9.210;2023-11-21T00:48:36;99253.81;;;10.27;72.91
49585;BME280;35491;49.142;9.210;2023-11-21T00:49:39;99252.31;;;10.33;72.88
49585;BME280;35491;49.142;9.210;2023-11-21T00:50:40;99255.50;;;10.36;72.94
49585;BME280;35491;49.142;9.210;2023-11-21T00:51:43;99243.31;;;10.34;72.88
49585;BME280;35491;49.142;9.210;2023-11-21T00:52:43;99249.78;;;10.31;72.99
49585;BME280;35491;49.142;9.210;2023-11-21T00:53:47;99253.81;;;10.35;72.94
49585;BME280;35491;49.142;9.210;2023-11-21T00:54:47;99254.16;;;10.32;73.22
49585;BME280;35491;49.142;9.210;2023-11-21T00:55:48;99255.66;;;10.35;73.07
49585;BME280;35491;49.142;9.210;2023-11-21T00:56:52;99249.47;;;10.34;72.93
49585;BME280;35491;49.142;9.210;2023-11-21T00:57:53;99247.50;;;10.36;73.01
49585;BME280;35491;49.142;9.210;2023-11-21T00:58:56;99249.66;;;10.33;73.39
49585;BME280;35491;49.142;9.210;2023-11-21T00:59:57;99251.16;;;10.35;73.19
49585;BME280;35491;49.142;9.210;2023-11-21T01:01:02;99250.78;;;10.22;73.86
49585;BME280;35491;49.142;9.210;2023-11-21T01:02:03;99248.47;;;10.27;73.81
49585;BME280;35491;49.142;9.210;2023-11-21T01:03:05;99246.97;;;10.24;73.59
49585;BME280;35491;49.142;9.210;2023-11-21T01:04:08;99251.13;;;10.27;73.88
49585;BME280;35491;49.142;9.210;2023-11-21T01:05:09;99248.13;;;10.30;73.79
49585;BME280;35491;49.142;9.210;2023-11-21T01:06:12;99248.44;;;10.19;74.07
49585;BME280;35491;49.142;9.210;2023-11-21T01:07:13;99244.28;;;10.24;73.75
49585;BME280;35491;49.142;9.210;2023-11-21T01:08:16;99243.75;;;10.21;74.19
49585;BME280;35491;49.142;9.210;2023-11-21T01:09:17;99253.63;;;10.20;74.01
49585;BME280;35491;49.142;9.210;2023-11-21T01:10:18;99252.41;;;10.06;74.41
49585;BME280;35491;49.142;9.210;2023-11-21T01:11:22;99256.25;;;10.12;74.79
49585;BME280;35491;49.142;9.210;2023-11-21T01:12:23;99253.91;;;10.09;74.89
49585;BME280;35491;49.142;9.210;2023-11-21T01:13:27;99254.38;;;10.04;74.94
49585;BME280;35491;49.142;9.210;2023-11-21T01:14:28;99246.41;;;10.12;75.26
49585;BME280;35491;49.142;9.210;2023-11-21T01:15:28;99252.78;;;10.20;74.59
49585;BME280;35491;49.142;9.210;2023-11-21T01:16:35;99252.09;;;10.18;75.19
49585;BME280;35491;49.142;9.210;2023-11-21T01:17:36;99245.44;;;10.22;74.89
49585;BME280;35491;49.142;9.210;2023-11-21T01:18:39;99249.09;;;10.21;75.27
49585;BME280;35491;49.142;9.210;2023-11-21T01:19:40;99249.25;;;10.19;75.03
49585;BME280;35491;49.142;9.210;2023-11-21T01:20:43;99252.63;;;10.21;75.11
49585;BME280;35491;49.142;9.210;2023-11-21T01:21:45;99251.25;;;10.17;74.92
49585;BME280;35491;49.142;9.210;2023-11-21T01:22:49;99251.75;;;10.12;75.19
49585;BME280;35491;49.142;9.210;2023-11-21T01:23:49;99249.09;;;10.21;75.22
49585;BME280;35491;49.142;9.210;2023-11-21T01:24:53;99253.41;;;10.13;75.29
49585;BME280;35491;49.142;9.210;2023-11-21T01:25:56;99257.03;;;9.96;75.75
49585;BME280;35491;49.142;9.210;2023-11-21T01:27:00;99248.56;;;10.09;75.32
49585;BME280;35491;49.142;9.210;2023-11-21T01:28:01;99254.28;;;10.14;75.21
49585;BME280;35491;49.142;9.210;2023-11-21T01:29:04;99248.78;;;10.24;75.11
49585;BME280;35491;49.142;9.210;2023-11-21T01:30:05;99244.28;;;10.24;75.00
49585;BME280;35491;49.142;9.210;2023-11-21T01:31:10;99246.00;;;10.34;74.83
49585;BME280;35491;49.142;9.210;2023-11-21T01:32:13;99249.66;;;10.33;75.22
49585;BME280;35491;49.142;9.210;2023-11-21T01:33:16;99249.47;;;10.26;75.03
49585;BME280;35491;49.142;9.210;2023-11-21T01:34:17;99250.47;;;10.25;75.03
49585;BME280;35491;49.142;9.210;2023-11-21T01:35:21;99244.94;;;10.26;75.25
49585;BME280;35491;49.142;9.210;2023-11-21T01:36:21;99253.16;;;10.33;74.90
49585;BME280;35491;49.142;9.210;2023-11-21T01:37:25;99251.69;;;10.39;74.82
49585;BME280;35491;49.142;9.210;2023-11-21T01:38:28;99249.19;;;10.37;74.66
49585;BME280;35491;49.142;9.210;2023-11-21T01:39:32;99251.88;;;10.37;74.59
49585;BME280;35491;49.142;9.210;2023-11-21T01:40:32;99257.31;;;10.36;74.91
49585;BME280;35491;49.142;9.210;2023-11-21T01:41:36;99249.78;;;10.31;74.78
49585;BME280;35491;49.142;9.210;2023-11-21T01:42:37;99254.44;;;10.21;75.07
49585;BME280;35491;49.142;9.210;2023-11-21T01:43:37;99247.09;;;10.23;75.31
49585;BME280;35491;49.142;9.210;2023-11-21T01:44:40;99252.31;;;10.24;75.00
49585;BME280;35491;49.142;9.210;2023-11-21T01:45:41;99256.00;;;10.32;74.95
49585;BME280;35491;49.142;9.210;2023-11-21T01:46:45;99255.50;;;10.36;74.65
49585;BME280;35491;49.142;9.210;2023-11-21T01:47:49;99250.38;;;10.43;74.78
49585;BME280;35491;49.142;9.210;2023-11-21T01:48:52;99245.88;;;10.43;74.62
49585;BME280;35491;49.142;9.210;2023-11-21T01:49:53;99252.22;;;10.51;74.25
49585;BME280;35491;49.142;9.210;2023-11-21T01:50:54;99255.56;;;10.44;74.71
49585;BME280;35491;49.142;9.210;2023-11-21T01:51:57;99255.56;;;10.44;74.71
49585;BME280;35491;49.142;9.210;2023-11-21T01:52:58;99256.88;;;10.49;74.62
49585;BME280;35491;49.142;9.210;2023-11-21T01:54:00;99250.53;;;10.41;74.70
49585;BME280;35491;49.142;9.210;2023-11-21T01:55:05;99251.22;;;10.43;74.75
49585;BME280;35491;49.142;9.210;2023-11-21T01:56:07;99254.19;;;10.40;74.68
49585;BME280;35491;49.142;9.210;2023-11-21T01:57:11;99250.22;;;10.44;74.74
49585;BME280;35491;49.142;9.210;2023-11-21T01:58:12;99250.53;;;10.50;74.31
49585;BME280;35491;49.142;9.210;2023-11-21T01:59:18;99253.22;;;10.50;74.37
49585;BME280;35491;49.142;9.210;2023-11-21T02:00:20;99246.19;;;10.40;74.26
49585;BME280;35491;49.142;9.210;2023-11-21T02:01:23;99249.84;;;10.39;74.83
49585;BME280;35491;49.142;9.210;2023-11-21T02:02:26;99249.72;;;10.49;74.61
49585;BME280;35491;49.142;9.210;2023-11-21T02:03:31;99250.53;;;10.50;74.55
49585;BME280;35491;49.142;9.210;2023-11-21T02:04:32;99252.56;;;10.48;74.67
49585;BME280;35491;49.142;9.210;2023-11-21T02:05:36;99258.91;;;10.47;74.62
49585;BME280;35491;49.142;9.210;2023-11-21T02:06:37;99247.38;;;10.46;74.72
49585;BME280;35491;49.142;9.210;2023-11-21T02:07:39;99249.91;;;10.48;74.48
49585;BME280;35491;49.142;9.210;2023-11-21T02:08:42;99254.19;;;10.40;74.71
49585;BME280;35491;49.142;9.210;2023-11-21T02:09:44;99250.88;;;10.38;74.71
49585;BME280;35491;49.142;9.210;2023-11-21T02:10:48;99251.69;;;10.39;74.84
49585;BME280;35491;49.142;9.210;2023-11-21T02:11:49;99254.66;;;10.36;74.79
49585;BME280;35491;49.142;9.210;2023-11-21T02:12:52;99255.88;;;10.41;74.69
49585;BME280;35491;49.142;9.210;2023-11-21T02:13:52;99253.53;;;10.38;74.66
49585;BME280;35491;49.142;9.210;2023-11-21T02:14:56;99248.66;;;10.34;74.58
49585;BME280;35491;49.142;9.210;2023-11-21T02:15:57;99257.50;;;10.34;74.38
49585;BME280;35491;49.142;9.210;2023-11-21T02:17:00;99254.81;;;10.34;74.60
49585;BME280;35491;49.142;9.210;2023-11-21T02:18:01;99254.66;;;10.36;74.52
49585;BME280;35491;49.142;9.210;2023-11-21T02:19:06;99255.13;;;10.31;74.98
49585;BME280;35491;49.142;9.210;2023-11-21T02:20:10;99252.63;;;10.29;75.06
49585;BME280;35491;49.142;9.210;2023-11-21T02:21:15;99248.97;;;10.30;74.81
49585;BME280;35491;49.142;9.210;2023-11-21T02:22:19;99253.94;;;10.25;74.86
49585;BME280;35491;49.142;9.210;2023-11-21T02:23:22;99252.25;;;10.16;75.04
49585;BME280;35491;49.142;9.210;2023-11-21T02:24:29;99248.28;;;10.20;74.79
49585;BME280;35491;49.142;9.210;2023-11-21T02:25:30;99250.97;;;10.28;74.61
49585;BME280;35491;49.142;9.210;2023-11-21T02:26:32;99248.94;;;10.14;75.25
49585;BME280;35491;49.142;9.210;2023-11-21T02:27:35;99247.44;;;10.20;75.31
49585;BME280;35491;49.142;9.210;2023-11-21T02:28:36;99249.28;;;10.27;74.94
49585;BME280;35491;49.142;9.210;2023-11-21T02:29:39;99248.13;;;10.30;74.94
49585;BME280;35491;49.142;9.210;2023-11-21T02:30:40;99248.97;;;10.30;74.76
49585;BME280;35491;49.142;9.210;2023-11-21T02:31:44;99251.47;;;10.32;74.91
49585;BME280;35491;49.142;9.210;2023-11-21T02:32:48;99245.78;;;10.27;74.75
49585;BME280;35491;49.142;9.210;2023-11-21T02:33:53;99253.63;;;10.28;74.60
49585;BME280;35491;49.142;9.210;2023-11-21T02:34:54;99253.16;;;10.33;74.51
49585;BME280;35491;49.142;9.210;2023-11-21T02:35:56;99249.97;;;10.29;74.58
49585;BME280;35491;49.142;9.210;2023-11-21T02:37:00;99245.63;;;10.37;74.49
49585;BME280;35491;49.142;9.210;2023-11-21T02:38:00;99250.38;;;10.43;74.31
49585;BME280;35491;49.142;9.210;2023-11-21T02:39:06;99250.16;;;10.36;74.39
49585;BME280;35491;49.142;9.210;2023-11-21T02:40:09;99252.53;;;10.39;74.52
49585;BME280;35491;49.142;9.210;2023-11-21T02:41:12;99255.13;;;10.31;74.54
49585;BME280;35491;49.142;9.210;2023-11-21T02:42:13;99254.63;;;10.27;75.04
49585;BME280;35491;49.142;9.210;2023-11-21T02:43:16;99258.78;;;10.22;75.09
49585;BME280;35491;49.142;9.210;2023-11-21T02:44:17;99249.28;;;10.27;74.69
49585;BME280;35491;49.142;9.210;2023-11-21T02:45:20;99254.16;;;10.32;74.83
49585;BME280;35491;49.142;9.210;2023-11-21T02:46:22;99258.47;;;10.25;74.72
49585;BME280;35491;49.142;9.210;2023-11-21T02:47:25;99251.97;;;10.36;74.66
49585;BME280;35491;49.142;9.210;2023-11-21T02:48:26;99253.16;;;10.33;74.71
49585;BME280;35491;49.142;9.210;2023-11-21T02:49:31;99248.53;;;10.43;74.55
49585;BME280;35491;49.142;9.210;2023-11-21T02:50:32;99256.22;;;10.38;74.38
49585;BME280;35491;49.142;9.210;2023-11-21T02:51:35;99247.63;;;10.26;74.65
49585;BME280;35491;49.142;9.210;2023-11-21T02:52:36;99246.47;;;10.29;74.96
49585;BME280;35491;49.142;9.210;2023-11-21T02:53:40;99245.78;;;10.27;74.86
49585;BME280;35491;49.142;9.210;2023-11-21T02:54:43;99243.44;;;10.24;74.98
49585;BME280;35491;49.142;9.210;2023-11-21T02:55:44;99249.25;;;10.19;75.16
49585;BME280;35491;49.142;9.210;2023-11-21T02:56:47;99247.97;;;10.23;75.03
49585;BME280;35491;49.142;9.210;2023-11-21T02:57:48;99244.78;;;10.20;75.17
49585;BME280;35491;49.142;9.210;2023-11-21T02:58:49;99246.59;;;10.19;75.27
49585;BME280;35491;49.142;9.210;2023-11-21T02:59:52;99247.44;;;10.20;74.96
49585;BME280;35491;49.142;9.210;2023-11-21T03:00:53;99242.41;;;10.17;75.18
49585;BME280;35491;49.142;9.210;2023-11-21T03:01:56;99244.72;;;10.11;75.39
49585;BME280;35491;49.142;9.210;2023-11-21T03:02:57;99241.41;;;10.09;75.47
49585;BME280;35491;49.142;9.210;2023-11-21T03:04:00;99238.88;;;10.08;75.68
49585;BME280;35491;49.142;9.210;2023-11-21T03:05:02;99240.41;;;10.10;75.80
49585;BME280;35491;49.142;9.210;2023-11-21T03:06:03;99246.09;;;10.15;75.25
49585;BME280;35491;49.142;9.210;2023-11-21T03:07:06;99249.06;;;10.12;75.70
49585;BME280;35491;49.142;9.210;2023-11-21T03:08:07;99239.72;;;10.08;76.27
49585;BME280;35491;49.142;9.210;2023-11-21T03:09:08;99248.41;;;10.10;75.77
49585;BME280;35491;49.142;9.210;2023-11-21T03:10:14;99238.06;;;10.07;76.04
49585;BME280;35491;49.142;9.210;2023-11-21T03:11:15;99246.41;;;10.12;76.10
49585;BME280;35491;49.142;9.210;2023-11-21T03:12:18;99245.75;;;10.10;75.96
49585;BME280;35491;49.142;9.210;2023-11-21T03:13:19;99246.22;;;10.06;76.17
49585;BME280;35491;49.142;9.210;2023-11-21T03:14:23;99244.38;;;10.06;75.98
49585;BME280;35491;49.142;9.210;2023-11-21T03:15:23;99246.91;;;10.16;76.05
49585;BME280;35491;49.142;9.210;2023-11-21T03:16:27;99250.75;;;10.13;75.86
49585;BME280;35491;49.142;9.210;2023-11-21T03:17:28;99241.75;;;10.14;75.91
49585;BME280;35491;49.142;9.210;2023-11-21T03:18:31;99248.06;;;10.13;75.91
49585;BME280;35491;49.142;9.210;2023-11-21T03:19:32;99251.44;;;10.15;76.15
49585;BME280;35491;49.142;9.210;2023-11-21T03:20:35;99244.25;;;10.16;76.09
49585;BME280;35491;49.142;9.210;2023-11-21T03:21:36;99247.25;;;10.13;75.95
49585;BME280;35491;49.142;9.210;2023-11-21T03:22:39;99242.25;;;10.18;76.01
49585;BME280;35491;49.142;9.210;2023-11-21T03:23:40;99247.75;;;10.17;75.81
49585;BME280;35491;49.142;9.210;2023-11-21T03:24:43;99234.72;;;10.13;75.90
49585;BME280;35491;49.142;9.210;2023-11-21T03:25:46;99245.06;;;10.08;76.42
49585;BME280;35491;49.142;9.210;2023-11-21T03:26:50;99237.91;;;10.17;76.12
49585;BME280;35491;49.142;9.210;2023-11-21T03:27:51;99249.06;;;10.12;75.96
49585;BME280;35491;49.142;9.210;2023-11-21T03:28:54;99247.44;;;10.20;75.75
49585;BME280;35491;49.142;9.210;2023-11-21T03:29:55;99248.59;;;10.17;75.74
49585;BME280;35491;49.142;9.210;2023-11-21T03:30:55;99253.09;;;10.17;76.04
49585;BME280;35491;49.142;9.210;2023-11-21T03:31:59;99250.59;;;10.15;75.97
49585;BME280;35491;49.142;9.210;2023-11-21T03:32:59;99245.75;;;10.10;76.02
49585;BME280;35491;49.142;9.210;2023-11-21T03:34:03;99246.09;;;10.15;75.98
49585;BME280;35491;49.142;9.210;2023-11-21T03:35:04;99250.06;;;10.11;76.11
49585;BME280;35491;49.142;9.210;2023-11-21T03:36:08;99247.75;;;10.08;75.92
49585;BME280;35491;49.142;9.210;2023-11-21T03:37:09;99248.56;;;10.09;76.28
49585;BME280;35491;49.142;9.210;2023-11-21T03:38:10;99249.41;;;10.09;76.24
49585;BME280;35491;49.142;9.210;2023-11-21T03:39:13;99252.69;;;9.95;76.84
49585;BME280;35491;49.142;9.210;2023-11-21T03:40:14;99259.53;;;9.97;76.91
49585;BME280;35491;49.142;9.210;2023-11-21T03:41:20;99258.25;;;10.10;76.17
49585;BME280;35491;49.142;9.210;2023-11-21T03:42:20;99260.56;;;10.05;76.72
49585;BME280;35491;49.142;9.210;2023-11-21T03:43:23;99251.59;;;10.14;76.43
49585;BME280;35491;49.142;9.210;2023-11-21T03:44:24;99257.09;;;10.21;76.18
49585;BME280;35491;49.142;9.210;2023-11-21T03:45:28;99254.81;;;10.26;76.04
49585;BME280;35491;49.142;9.210;2023-11-21T03:46:29;99252.94;;;10.26;76.35
49585;BME280;35491;49.142;9.210;2023-11-21T03:47:32;99248.13;;;10.30;75.89
49585;BME280;35491;49.142;9.210;2023-11-21T03:48:33;99253.13;;;10.25;76.18
49585;BME280;35491;49.142;9.210;2023-11-21T03:49:34;99254.63;;;10.27;76.27
49585;BME280;35491;49.142;9.210;2023-11-21T03:50:37;99251.28;;;10.25;75.99
49585;BME280;35491;49.142;9.210;2023-11-21T03:51:37;99254.13;;;10.24;76.17
49585;BME280;35491;49.142;9.210;2023-11-21T03:52:41;99261.47;;;10.30;75.89
49585;BME280;35491;49.142;9.210;2023-11-21T03:53:41;99251.44;;;10.24;76.39
49585;BME280;35491;49.142;9.210;2023-11-21T03:54:44;99250.47;;;10.25;76.04
49585;BME280;35491;49.142;9.210;2023-11-21T03:55:45;99252.47;;;10.31;75.85
49585;BME280;35491;49.142;9.210;2023-11-21T03:56:49;99262.16;;;10.32;75.93
49585;BME280;35491;49.142;9.210;2023-11-21T03:57:52;99253.81;;;10.27;76.11
49585;BME280;35491;49.142;9.210;2023-11-21T03:58:52;99247.47;;;10.28;76.23
49585;BME280;35491;49.142;9.210;2023-11-21T03:59:56;99256.78;;;10.24;76.19
49585;BME280;35491;49.142;9.210;2023-11-21T04:00:56;99256.09;;;10.22;76.67
49585;BME280;35491;49.142;9.210;2023-11-21T04:01:57;99256.09;;;10.22;76.70
49585;BME280;35491;49.142;9.210;2023-11-21T04:03:00;99256.09;;;10.22;76.45
49585;BME280;35491;49.142;9.210;2023-11-21T04:04:01;99256.47;;;10.27;76.30
49585;BME280;35491;49.142;9.210;2023-11-21T04:05:04;99263.84;;;10.33;76.14
49585;BME280;35491;49.142;9.210;2023-11-21T04:06:05;99261.16;;;10.25;76.40
49585;BME280;35491;49.142;9.210;2023-11-21T04:07:09;99265.81;;;10.31;76.17
49585;BME280;35491;49.142;9.210;2023-11-21T04:08:10;99261.81;;;10.27;76.26
49585;BME280;35491;49.142;9.210;2023-11-21T04:09:13;99256.81;;;10.32;76.07
49585;BME280;35491;49.142;9.210;2023-11-21T04:10:13;99259.72;;;10.39;76.14
49585;BME280;35491;49.142;9.210;2023-11-21T04:11:17;99264.06;;;10.40;76.19
49585;BME280;35491;49.142;9.210;2023-11-21T04:12:20;99269.59;;;10.47;75.92
49585;BME280;35491;49.142;9.210;2023-11-21T04:13:23;99263.59;;;10.53;75.95
49585;BME280;35491;49.142;9.210;2023-11-21T04:14:24;99263.59;;;10.53;75.71
49585;BME280;35491;49.142;9.210;2023-11-21T04:15:27;99262.91;;;10.59;75.51
49585;BME280;35491;49.142;9.210;2023-11-21T04:16:28;99262.91;;;10.59;75.53
49585;BME280;35491;49.142;9.210;2023-11-21T04:17:32;99263.78;;;10.59;75.54
49585;BME280;35491;49.142;9.210;2023-11-21T04:18:33;99266.75;;;10.56;75.29
49585;BME280;35491;49.142;9.210;2023-11-21T04:19:33;99263.91;;;10.50;75.61
49585;BME280;35491;49.142;9.210;2023-11-21T04:20:37;99266.94;;;10.55;75.43
49585;BME280;35491;49.142;9.210;2023-11-21T04:21:37;99276.97;;;10.61;75.42
49585;BME280;35491;49.142;9.210;2023-11-21T04:22:41;99267.94;;;10.54;75.38
49585;BME280;35491;49.142;9.210;2023-11-21T04:23:43;99269.44;;;10.56;75.38
49585;BME280;35491;49.142;9.210;2023-11-21T04:24:47;99274.28;;;10.53;75.15
49585;BME280;35491;49.142;9.210;2023-11-21T04:25:47;99271.63;;;10.61;74.98
49585;BME280;35491;49.142;9.210;2023-11-21T04:26:48;99265.09;;;10.64;74.89
49585;BME280;35491;49.142;9.210;2023-11-21T04:27:54;99273.63;;;10.59;74.84
49585;BME280;35491;49.142;9.210;2023-11-21T04:28:55;99269.94;;;10.60;75.14
49585;BME280;35491;49.142;9.210;2023-11-21T04:29:55;99275.63;;;10.57;75.28
49585;BME280;35491;49.142;9.210;2023-11-21T04:30:59;99265.56;;;10.51;75.41
49585;BME280;35491;49.142;9.210;2023-11-21T04:32:00;99273.25;;;10.45;75.41
49585;BME280;35491;49.142;9.210;2023-11-21T04:33:03;99268.91;;;10.44;75.34
49585;BME280;35491;49.142;9.210;2023-11-21T04:34:03;99269.91;;;10.43;75.66
49585;BME280;35491;49.142;9.210;2023-11-21T04:35:07;99277.94;;;10.43;75.81
49585;BME280;35491;49.142;9.210;2023-11-21T04:36:09;99273.41;;;10.44;75.39
49585;BME280;35491;49.142;9.210;2023-11-21T04:37:12;99269.69;;;10.37;75.99
49585;BME280;35491;49.142;9.210;2023-11-21T04:38:16;99280.72;;;10.34;76.02
49585;BME280;35491;49.142;9.210;2023-11-21T04:39:16;99275.03;;;10.37;75.90
49585;BME280;35491;49.142;9.210;2023-11-21T04:40:17;99272.53;;;10.35;75.87
49585;BME280;35491;49.142;9.210;2023-11-21T04:41:21;99279.88;;;10.33;76.00
49585;BME280;35491;49.142;9.210;2023-11-21T04:42:22;99272.84;;;10.32;76.16
49585;BME280;35491;49.142;9.210;2023-11-21T04:43:29;99276.50;;;10.31;76.13
49585;BME280;35491;49.142;9.210;2023-11-21T04:44:30;99280.19;;;10.30;76.37
49585;BME280;35491;49.142;9.210;2023-11-21T04:45:33;99278.53;;;10.29;76.40
49585;BME280;35491;49.142;9.210;2023-11-21T04:46:35;99286.84;;;10.26;76.35
49585;BME280;35491;49.142;9.210;2023-11-21T04:47:38;99282.50;;;10.25;76.50
49585;BME280;35491;49.142;9.210;2023-11-21T04:48:41;99286.19;;;10.24;76.52
49585;BME280;35491;49.142;9.210;2023-11-21T04:49:45;99284.50;;;10.23;76.69
49585;BME280;35491;49.142;9.210;2023-11-21T04:50:47;99287.03;;;10.24;76.44
49585;BME280;35491;49.142;9.210;2023-11-21T04:51:51;99281.81;;;10.14;76.95
49585;BME280;35491;49.142;9.210;2023-11-21T04:52:51;99275.78;;;10.12;77.00
49585;BME280;35491;49.142;9.210;2023-11-21T04:53:54;99280.16;;;10.22;77.17
49585;BME280;35491;49.142;9.210;2023-11-21T04:54:55;99280.47;;;10.10;77.42
49585;BME280;35491;49.142;9.210;2023-11-21T04:55:59;99285.25;;;10.07;77.67
49585;BME280;35491;49.142;9.210;2023-11-21T04:57:00;99283.97;;;10.11;77.71
49585;BME280;35491;49.142;9.210;2023-11-21T04:58:04;99286.84;;;10.18;77.67
49585;BME280;35491;49.142;9.210;2023-11-21T04:59:07;99291.97;;;10.11;77.82
49585;BME280;35491;49.142;9.210;2023-11-21T05:00:11;99282.09;;;10.11;77.96
49585;BME280;35491;49.142;9.210;2023-11-21T05:01:12;99286.31;;;10.14;77.53
49585;BME280;35491;49.142;9.210;2023-11-21T05:02:16;99290.81;;;10.13;77.89
49585;BME280;35491;49.142;9.210;2023-11-21T05:03:16;99289.13;;;10.12;77.79
49585;BME280;35491;49.142;9.210;2023-11-21T05:04:17;99288.13;;;10.13;77.83
49585;BME280;35491;49.142;9.210;2023-11-21T05:05:20;99289.09;;;10.04;78.21
49585;BME280;35491;49.142;9.210;2023-11-21T05:06:21;99283.94;;;10.03;78.39
49585;BME280;35491;49.142;9.210;2023-11-21T05:07:24;99293.47;;;10.13;78.06
49585;BME280;35491;49.142;9.210;2023-11-21T05:08:28;99290.50;;;10.17;78.03
49585;BME280;35491;49.142;9.210;2023-11-21T05:09:32;99284.00;;;10.19;77.81
49585;BME280;35491;49.142;9.210;2023-11-21T05:10:32;99284.13;;;10.09;78.36
49585;BME280;35491;49.142;9.210;2023-11-21T05:11:38;99293.97;;;10.09;78.24
49585;BME280;35491;49.142;9.210;2023-11-21T05:12:39;99280.78;;;10.07;78.46
49585;BME280;35491;49.142;9.210;2023-11-21T05:13:42;99285.09;;;10.00;78.46
49585;BME280;35491;49.142;9.210;2023-11-21T05:14:46;99286.75;;;10.01;78.71
49585;BME280;35491;49.142;9.210;2023-11-21T05:15:49;99290.06;;;9.95;79.00
49585;BME280;35491;49.142;9.210;2023-11-21T05:16:50;99296.38;;;9.94;79.11
49585;BME280;35491;49.142;9.210;2023-11-21T05:17:54;99298.19;;;9.85;79.61
49585;BME280;35491;49.142;9.210;2023-11-21T05:18:55;99295.03;;;9.90;79.32
49585;BME280;35491;49.142;9.210;2023-11-21T05:20:00;99297.34;;;9.84;79.77
49585;BME280;35491;49.142;9.210;2023-11-21T05:21:04;99295.84;;;9.82;79.92
49585;BME280;35491;49.142;9.210;2023-11-21T05:22:07;99313.16;;;9.78;80.23
49585;BME280;35491;49.142;9.210;2023-11-21T05:23:09;99306.28;;;9.75;80.36
49585;BME280;35491;49.142;9.210;2023-11-21T05:24:13;99303.84;;;9.82;80.57
49585;BME280;35491;49.142;9.210;2023-11-21T05:25:13;99302.31;;;9.79;80.35
49585;BME280;35491;49.142;9.210;2023-11-21T05:26:18;99301.69;;;9.86;80.59
49585;BME280;35491;49.142;9.210;2023-11-21T05:27:18;99308.03;;;9.84;80.77
49585;BME280;35491;49.142;9.210;2023-11-21T05:28:22;99303.66;;;9.83;80.95
49585;BME280;35491;49.142;9.210;2023-11-21T05:29:22;99304.34;;;9.86;80.70
49585;BME280;35491;49.142;9.210;2023-11-21T05:30:28;99305.56;;;9.91;80.72